sensor_id;sensor_type;location;lat;lon;timestamp;pressure;altitude;pressure_sealevel;temperature;humidity
10008;BME280;5043;41.766;26.204;2023-03-26T00:00:45;100162.63;;;15.24;100.00
10008;BME280;5043;41.766;26.204;2023-03-26T00:03:18;100173.09;;;15.25;100.00
10008;BME280;5043;41.766;26.204;2023-03-26T00:05:45;100159.81;;;15.25;100.00
10008;BME280;5043;41.766;26.204;2023-03-26T00:08:15;100152.44;;;15.19;100.00
10008;BME280;5043;41.766;26.204;2023-03-26T00:10:41;100156.25;;;15.17;100.00
10008;BME280;5043;41.766;26.204;2023-03-26T00:13:08;100149.28;;;14.98;100.00
10008;BME280;5043;41.766;26.204;2023-03-26T00:15:35;100142.81;;;14.83;100.00
10008;BME280;5043;41.766;26.204;2023-03-26T00:18:01;100141.50;;;14.69;100.00
10008;BME280;5043;41.766;26.204;2023-03-26T00:20:28;100149.81;;;14.57;100.00
10008;BME280;5043;41.766;26.204;2023-03-26T00:22:55;100136.56;;;14.57;100.00
10008;BME280;5043;41.766;26.204;2023-03-26T00:25:21;99979.53;;;13.71;100.00
10008;BME280;5043;41.766;26.204;2023-03-26T00:27:48;100122.31;;;14.58;100.00
10008;BME280;5043;41.766;26.204;2023-03-26T00:30:14;100107.28;;;14.49;100.00
10008;BME280;5043;41.766;26.204;2023-03-26T00:32:41;100109.31;;;14.37;100.00
10008;BME280;5043;41.766;26.204;2023-03-26T00:35:07;100127.22;;;14.53;100.00
10008;BME280;5043;41.766;26.204;2023-03-26T00:37:32;100132.38;;;14.54;100.00
10008;BME280;5043;41.766;26.204;2023-03-26T00:39:58;100132.81;;;14.50;100.00
10008;BME280;5043;41.766;26.204;2023-03-26T00:42:27;100093.59;;;14.16;100.00
10008;BME280;5043;41.766;26.204;2023-03-26T00:44:53;100139.88;;;14.41;100.00
10008;BME280;5043;41.766;26.204;2023-03-26T00:47:19;100134.69;;;14.39;100.00
10008;BME280;5043;41.766;26.204;2023-03-26T00:49:45;100139.06;;;14.31;100.00
10008;BME280;5043;41.766;26.204;2023-03-26T00:52:14;100158.44;;;14.41;100.00
10008;BME280;5043;41.766;26.204;2023-03-26T00:54:43;100164.09;;;14.19;100.00
10008;BME280;5043;41.766;26.204;2023-03-26T00:57:09;100172.81;;;14.11;100.00
10008;BME280;5043;41.766;26.204;2023-03-26T00:59:34;100114.97;;;13.88;100.00
10008;BME280;5043;41.766;26.204;2023-03-26T01:02:00;100114.56;;;13.83;100.00
10008;BME280;5043;41.766;26.204;2023-03-26T01:04:28;100171.78;;;14.22;100.00
10008;BME280;5043;41.766;26.204;2023-03-26T01:06:55;100166.41;;;14.04;100.00
10008;BME280;5043;41.766;26.204;2023-03-26T01:09:28;100166.81;;;14.00;100.00
10008;BME280;5043;41.766;26.204;2023-03-26T01:11:58;100160.16;;;13.96;100.00
10008;BME280;5043;41.766;26.204;2023-03-26T01:14:25;100137.66;;;13.63;100.00
10008;BME280;5043;41.766;26.204;2023-03-26T01:16:59;100145.16;;;13.67;100.00
10008;BME280;5043;41.766;26.204;2023-03-26T01:22:16;100172.13;;;14.00;100.00
10008;BME280;5043;41.766;26.204;2023-03-26T01:24:42;100180.41;;;13.97;100.00
10008;BME280;5043;41.766;26.204;2023-03-26T01:33:25;100168.81;;;13.88;100.00
10008;BME280;5043;41.766;26.204;2023-03-26T01:38:38;100101.16;;;13.47;100.00
10008;BME280;5043;41.766;26.204;2023-03-26T01:41:10;100157.03;;;13.73;100.00
10008;BME280;5043;41.766;26.204;2023-03-26T01:44:02;100165.81;;;13.73;100.00
10008;BME280;5043;41.766;26.204;2023-03-26T01:46:31;100101.00;;;13.39;100.00
10008;BME280;5043;41.766;26.204;2023-03-26T01:49:04;100164.63;;;13.86;100.00
10008;BME280;5043;41.766;26.204;2023-03-26T01:51:32;100176.00;;;13.68;100.00
10008;BME280;5043;41.766;26.204;2023-03-26T01:53:59;100147.41;;;13.53;100.00
10008;BME280;5043;41.766;26.204;2023-03-26T01:57:07;100167.41;;;13.38;100.00
10008;BME280;5043;41.766;26.204;2023-03-26T02:08:04;100183.50;;;12.68;100.00
10008;BME280;5043;41.766;26.204;2023-03-26T02:10:43;100186.44;;;12.74;100.00
10008;BME280;5043;41.766;26.204;2023-03-26T02:13:11;100188.69;;;12.79;100.00
10008;BME280;5043;41.766;26.204;2023-03-26T02:15:36;100187.13;;;12.76;100.00
10008;BME280;5043;41.766;26.204;2023-03-26T02:18:03;100214.16;;;12.70;100.00
10008;BME280;5043;41.766;26.204;2023-03-26T02:20:28;100170.69;;;12.63;100.00
10008;BME280;5043;41.766;26.204;2023-03-26T02:22:55;100183.50;;;12.58;100.00
10008;BME280;5043;41.766;26.204;2023-03-26T02:25:21;100181.69;;;12.59;100.00
10008;BME280;5043;41.766;26.204;2023-03-26T02:27:48;100125.88;;;12.22;100.00
10008;BME280;5043;41.766;26.204;2023-03-26T02:30:18;100197.97;;;12.54;100.00
10008;BME280;5043;41.766;26.204;2023-03-26T02:32:45;100218.69;;;12.49;100.00
10008;BME280;5043;41.766;26.204;2023-03-26T02:35:11;100191.50;;;12.37;100.00
10008;BME280;5043;41.766;26.204;2023-03-26T02:37:37;100132.59;;;11.96;100.00
10008;BME280;5043;41.766;26.204;2023-03-26T02:40:04;100171.78;;;12.11;100.00
10008;BME280;5043;41.766;26.204;2023-03-26T02:42:35;100202.97;;;12.17;100.00
10008;BME280;5043;41.766;26.204;2023-03-26T02:45:01;100206.25;;;12.10;100.00
10008;BME280;5043;41.766;26.204;2023-03-26T02:47:26;100217.56;;;12.12;100.00
10008;BME280;5043;41.766;26.204;2023-03-26T02:49:51;100213.69;;;12.16;100.00
10008;BME280;5043;41.766;26.204;2023-03-26T02:52:17;100209.41;;;12.24;100.00
10008;BME280;5043;41.766;26.204;2023-03-26T02:54:42;100230.75;;;12.32;100.00
10008;BME280;5043;41.766;26.204;2023-03-26T02:57:08;100216.72;;;12.41;100.00
10008;BME280;5043;41.766;26.204;2023-03-26T02:59:33;100241.06;;;12.45;100.00
10008;BME280;5043;41.766;26.204;2023-03-26T03:01:59;100217.72;;;12.50;100.00
10008;BME280;5043;41.766;26.204;2023-03-26T03:04:24;100212.31;;;12.52;100.00
10008;BME280;5043;41.766;26.204;2023-03-26T03:06:50;100198.75;;;12.45;100.00
10008;BME280;5043;41.766;26.204;2023-03-26T03:09:17;100203.97;;;12.56;100.00
10008;BME280;5043;41.766;26.204;2023-03-26T03:11:43;100159.84;;;12.26;100.00
10008;BME280;5043;41.766;26.204;2023-03-26T03:14:08;100218.16;;;12.55;100.00
10008;BME280;5043;41.766;26.204;2023-03-26T03:16:34;100223.84;;;12.51;100.00
10008;BME280;5043;41.766;26.204;2023-03-26T03:18:59;100162.16;;;12.10;100.00
10008;BME280;5043;41.766;26.204;2023-03-26T03:21:27;100234.13;;;12.44;100.00
10008;BME280;5043;41.766;26.204;2023-03-26T03:23:54;100234.53;;;12.39;100.00
10008;BME280;5043;41.766;26.204;2023-03-26T03:26:21;100246.78;;;12.40;100.00
10008;BME280;5043;41.766;26.204;2023-03-26T03:28:48;100158.44;;;11.83;100.00
10008;BME280;5043;41.766;26.204;2023-03-26T03:31:15;100141.66;;;11.72;100.00
10008;BME280;5043;41.766;26.204;2023-03-26T03:33:41;100248.72;;;12.38;100.00
10008;BME280;5043;41.766;26.204;2023-03-26T03:36:09;100248.88;;;12.37;100.00
10008;BME280;5043;41.766;26.204;2023-03-26T03:38:39;100244.94;;;12.31;100.00
10008;BME280;5043;41.766;26.204;2023-03-26T03:41:06;100152.00;;;11.76;100.00
10008;BME280;5043;41.766;26.204;2023-03-26T03:43:33;100271.25;;;12.33;100.00
10008;BME280;5043;41.766;26.204;2023-03-26T03:45:59;100268.16;;;12.28;100.00
10008;BME280;5043;41.766;26.204;2023-03-26T03:48:25;100284.84;;;12.19;100.00
10008;BME280;5043;41.766;26.204;2023-03-26T03:50:52;100264.75;;;11.96;100.00
10008;BME280;5043;41.766;26.204;2023-03-26T03:53:18;100309.97;;;12.13;100.00
10008;BME280;5043;41.766;26.204;2023-03-26T03:55:43;100288.22;;;12.10;100.00
10008;BME280;5043;41.766;26.204;2023-03-26T03:58:21;100242.94;;;11.73;100.00
10008;BME280;5043;41.766;26.204;2023-03-26T04:00:50;100331.69;;;12.17;100.00
10008;BME280;5043;41.766;26.204;2023-03-26T04:03:17;100332.44;;;12.19;100.00
10008;BME280;5043;41.766;26.204;2023-03-26T04:05:43;100256.97;;;11.94;100.00
10008;BME280;5043;41.766;26.204;2023-03-26T04:08:17;100291.91;;;12.18;100.00
10008;BME280;5043;41.766;26.204;2023-03-26T04:10:43;100336.25;;;12.35;100.00
10008;BME280;5043;41.766;26.204;2023-03-26T04:13:13;100335.91;;;12.40;100.00
10008;BME280;5043;41.766;26.204;2023-03-26T04:15:40;100354.59;;;12.48;100.00
10008;BME280;5043;41.766;26.204;2023-03-26T04:18:05;100350.91;;;12.60;100.00
10008;BME280;5043;41.766;26.204;2023-03-26T04:20:35;100357.72;;;12.63;100.00
10008;BME280;5043;41.766;26.204;2023-03-26T04:23:02;100320.50;;;12.55;100.00
10008;BME280;5043;41.766;26.204;2023-03-26T04:25:28;100328.38;;;12.66;100.00
10008;BME280;5043;41.766;26.204;2023-03-26T04:27:55;100342.59;;;12.74;100.00
10008;BME280;5043;41.766;26.204;2023-03-26T04:30:23;100315.28;;;12.74;100.00
10008;BME280;5043;41.766;26.204;2023-03-26T04:32:49;100318.97;;;12.82;100.00
10008;BME280;5043;41.766;26.204;2023-03-26T04:35:16;100284.38;;;12.74;100.00
10008;BME280;5043;41.766;26.204;2023-03-26T04:37:42;100344.50;;;12.93;100.00
10008;BME280;5043;41.766;26.204;2023-03-26T04:40:19;100266.03;;;12.52;100.00
10008;BME280;5043;41.766;26.204;2023-03-26T04:42:46;100339.59;;;12.88;100.00
10008;BME280;5043;41.766;26.204;2023-03-26T04:45:14;100342.34;;;12.77;100.00
10008;BME280;5043;41.766;26.204;2023-03-26T04:47:39;100328.78;;;12.71;100.00
10008;BME280;5043;41.766;26.204;2023-03-26T04:50:06;100371.56;;;12.76;100.00
10008;BME280;5043;41.766;26.204;2023-03-26T04:52:32;100313.81;;;12.51;100.00
10008;BME280;5043;41.766;26.204;2023-03-26T04:54:58;100358.94;;;12.79;100.00
10008;BME280;5043;41.766;26.204;2023-03-26T04:57:34;100334.41;;;12.77;100.00
10008;BME280;5043;41.766;26.204;2023-03-26T05:00:03;100370.22;;;12.81;100.00
10008;BME280;5043;41.766;26.204;2023-03-26T05:02:36;100311.31;;;12.49;100.00
10008;BME280;5043;41.766;26.204;2023-03-26T05:05:04;100357.66;;;12.74;100.00
10008;BME280;5043;41.766;26.204;2023-03-26T05:07:29;100366.03;;;12.79;100.00
10008;BME280;5043;41.766;26.204;2023-03-26T05:09:55;100380.66;;;12.83;100.00
10008;BME280;5043;41.766;26.204;2023-03-26T05:12:21;100378.34;;;12.89;100.00
10008;BME280;5043;41.766;26.204;2023-03-26T05:14:47;100367.44;;;12.83;100.00
10008;BME280;5043;41.766;26.204;2023-03-26T05:17:13;100362.97;;;12.83;100.00
10008;BME280;5043;41.766;26.204;2023-03-26T05:19:39;100277.75;;;12.29;100.00
10008;BME280;5043;41.766;26.204;2023-03-26T05:22:05;100337.59;;;12.81;100.00
10008;BME280;5043;41.766;26.204;2023-03-26T05:24:31;100379.47;;;12.87;100.00
10008;BME280;5043;41.766;26.204;2023-03-26T05:26:56;100318.00;;;12.53;100.00
10008;BME280;5043;41.766;26.204;2023-03-26T05:29:22;100372.47;;;12.86;100.00
10008;BME280;5043;41.766;26.204;2023-03-26T05:31:48;100397.53;;;12.82;100.00
10008;BME280;5043;41.766;26.204;2023-03-26T05:34:14;100325.22;;;12.51;100.00
10008;BME280;5043;41.766;26.204;2023-03-26T05:36:40;100387.28;;;12.98;100.00
10008;BME280;5043;41.766;26.204;2023-03-26T05:39:07;100392.34;;;13.01;100.00
10008;BME280;5043;41.766;26.204;2023-03-26T05:41:33;100407.47;;;13.10;100.00
10008;BME280;5043;41.766;26.204;2023-03-26T05:43:58;100410.25;;;13.18;100.00
10008;BME280;5043;41.766;26.204;2023-03-26T05:46:24;100423.53;;;13.28;100.00
10008;BME280;5043;41.766;26.204;2023-03-26T05:48:50;100417.84;;;13.32;100.00
10008;BME280;5043;41.766;26.204;2023-03-26T05:51:16;100422.28;;;13.32;100.00
10008;BME280;5043;41.766;26.204;2023-03-26T05:53:42;100374.59;;;13.22;100.00
10008;BME280;5043;41.766;26.204;2023-03-26T05:56:08;100428.94;;;13.56;100.00
10008;BME280;5043;41.766;26.204;2023-03-26T05:58:35;100405.34;;;13.63;100.00
10008;BME280;5043;41.766;26.204;2023-03-26T06:01:05;100375.06;;;13.56;100.00
10008;BME280;5043;41.766;26.204;2023-03-26T06:03:34;100452.69;;;13.77;100.00
10008;BME280;5043;41.766;26.204;2023-03-26T06:06:00;100443.47;;;13.81;100.00
10008;BME280;5043;41.766;26.204;2023-03-26T06:08:26;100436.38;;;13.91;100.00
10008;BME280;5043;41.766;26.204;2023-03-26T06:11:03;100396.44;;;13.64;100.00
10008;BME280;5043;41.766;26.204;2023-03-26T06:13:29;100431.91;;;13.82;100.00
10008;BME280;5043;41.766;26.204;2023-03-26T06:15:55;100431.91;;;13.82;100.00
10008;BME280;5043;41.766;26.204;2023-03-26T06:18:23;100423.69;;;13.85;100.00
10008;BME280;5043;41.766;26.204;2023-03-26T06:20:48;100431.50;;;13.96;100.00
10008;BME280;5043;41.766;26.204;2023-03-26T06:23:15;100379.13;;;13.69;100.00
10008;BME280;5043;41.766;26.204;2023-03-26T06:25:41;100462.91;;;14.01;100.00
10008;BME280;5043;41.766;26.204;2023-03-26T06:28:08;100431.94;;;14.01;100.00
10008;BME280;5043;41.766;26.204;2023-03-26T06:30:34;100428.59;;;13.99;100.00
10008;BME280;5043;41.766;26.204;2023-03-26T06:33:00;100406.78;;;13.86;100.00
10008;BME280;5043;41.766;26.204;2023-03-26T06:35:25;100433.47;;;14.13;100.00
10008;BME280;5043;41.766;26.204;2023-03-26T06:37:51;100434.28;;;14.14;100.00
10008;BME280;5043;41.766;26.204;2023-03-26T06:40:16;100424.25;;;14.27;100.00
10008;BME280;5043;41.766;26.204;2023-03-26T06:42:41;100435.75;;;14.37;100.00
10008;BME280;5043;41.766;26.204;2023-03-26T06:45:07;100458.09;;;14.34;100.00
10008;BME280;5043;41.766;26.204;2023-03-26T06:47:33;100431.41;;;14.36;100.00
10008;BME280;5043;41.766;26.204;2023-03-26T06:49:58;100472.16;;;14.35;100.00
10008;BME280;5043;41.766;26.204;2023-03-26T06:52:24;100430.97;;;14.31;100.00
10008;BME280;5043;41.766;26.204;2023-03-26T06:54:50;100455.81;;;14.39;100.00
10008;BME280;5043;41.766;26.204;2023-03-26T06:57:15;100462.56;;;14.43;100.00
10008;BME280;5043;41.766;26.204;2023-03-26T06:59:41;100462.66;;;14.52;100.00
10008;BME280;5043;41.766;26.204;2023-03-26T07:02:06;100462.66;;;14.52;100.00
10008;BME280;5043;41.766;26.204;2023-03-26T07:04:34;100454.44;;;14.55;100.00
10008;BME280;5043;41.766;26.204;2023-03-26T07:07:00;100408.47;;;14.44;100.00
10008;BME280;5043;41.766;26.204;2023-03-26T07:09:25;100480.63;;;14.96;100.00
10008;BME280;5043;41.766;26.204;2023-03-26T07:11:55;100490.13;;;14.98;100.00
10008;BME280;5043;41.766;26.204;2023-03-26T07:14:20;100490.63;;;15.21;100.00
10008;BME280;5043;41.766;26.204;2023-03-26T07:16:46;100487.53;;;15.62;100.00
10008;BME280;5043;41.766;26.204;2023-03-26T10:09:33;100406.16;;;21.09;36.52
10008;BME280;5043;41.766;26.204;2023-03-26T10:15:59;100401.72;;;21.16;37.65
10008;BME280;5043;41.766;26.204;2023-03-26T10:18:53;100422.97;;;21.03;37.04
10008;BME280;5043;41.766;26.204;2023-03-26T10:21:41;100411.53;;;21.24;36.28
10008;BME280;5043;41.766;26.204;2023-03-26T10:32:21;100412.81;;;21.43;34.67
10008;BME280;5043;41.766;26.204;2023-03-26T10:37:31;100363.22;;;21.24;34.53
10008;BME280;5043;41.766;26.204;2023-03-26T10:42:42;100371.59;;;21.50;32.72
10008;BME280;5043;41.766;26.204;2023-03-26T10:48:26;100393.63;;;21.96;32.04
10008;BME280;5043;41.766;26.204;2023-03-26T10:56:15;100386.63;;;22.23;31.86
10008;BME280;5043;41.766;26.204;2023-03-26T10:58:41;100373.50;;;22.34;30.82
10008;BME280;5043;41.766;26.204;2023-03-26T11:01:14;100378.38;;;22.45;30.94
10008;BME280;5043;41.766;26.204;2023-03-26T11:07:32;100364.09;;;22.73;30.51
10008;BME280;5043;41.766;26.204;2023-03-26T11:10:06;100319.78;;;22.62;30.86
10008;BME280;5043;41.766;26.204;2023-03-26T11:12:51;100366.41;;;23.16;31.10
10008;BME280;5043;41.766;26.204;2023-03-26T11:15:38;100291.34;;;22.25;30.27
10008;BME280;5043;41.766;26.204;2023-03-26T11:21:17;100371.16;;;22.74;30.92
10008;BME280;5043;41.766;26.204;2023-03-26T11:24:07;100354.09;;;22.94;30.89
10008;BME280;5043;41.766;26.204;2023-03-26T11:27:02;100371.00;;;23.16;30.33
10008;BME280;5043;41.766;26.204;2023-03-26T11:32:57;100345.47;;;23.53;28.96
10008;BME280;5043;41.766;26.204;2023-03-26T11:35:36;100355.63;;;23.44;29.21
10008;BME280;5043;41.766;26.204;2023-03-26T11:40:43;100329.22;;;24.07;27.88
10008;BME280;5043;41.766;26.204;2023-03-26T11:43:15;100324.81;;;24.06;28.16
10008;BME280;5043;41.766;26.204;2023-03-26T11:45:44;100338.09;;;23.87;27.96
10008;BME280;5043;41.766;26.204;2023-03-26T11:48:17;100327.94;;;23.89;27.83
10008;BME280;5043;41.766;26.204;2023-03-26T11:50:50;100314.94;;;24.26;27.97
10008;BME280;5043;41.766;26.204;2023-03-26T11:53:19;100312.00;;;24.47;27.53
10008;BME280;5043;41.766;26.204;2023-03-26T11:56:03;100313.88;;;24.33;27.34
10008;BME280;5043;41.766;26.204;2023-03-26T12:04:11;100314.63;;;24.86;25.88
10008;BME280;5043;41.766;26.204;2023-03-26T12:06:38;100302.41;;;24.71;26.42
10008;BME280;5043;41.766;26.204;2023-03-26T12:09:18;100309.25;;;24.67;26.52
10008;BME280;5043;41.766;26.204;2023-03-26T12:11:44;100291.91;;;25.07;26.19
10008;BME280;5043;41.766;26.204;2023-03-26T12:14:21;100302.53;;;25.53;26.25
10008;BME280;5043;41.766;26.204;2023-03-26T12:17:04;100294.69;;;26.01;25.42
10008;BME280;5043;41.766;26.204;2023-03-26T12:19:41;100314.97;;;26.66;24.39
10008;BME280;5043;41.766;26.204;2023-03-26T12:22:34;100297.09;;;27.49;22.96
10008;BME280;5043;41.766;26.204;2023-03-26T12:27:33;100283.94;;;29.38;20.77
10008;BME280;5043;41.766;26.204;2023-03-26T12:30:25;100283.44;;;30.69;20.55
10008;BME280;5043;41.766;26.204;2023-03-26T12:32:58;100293.50;;;31.33;19.13
10008;BME280;5043;41.766;26.204;2023-03-26T12:35:30;100286.25;;;30.79;19.07
10008;BME280;5043;41.766;26.204;2023-03-26T12:38:22;100280.31;;;30.82;19.11
10008;BME280;5043;41.766;26.204;2023-03-26T12:41:03;100237.72;;;31.19;18.38
10008;BME280;5043;41.766;26.204;2023-03-26T12:49:10;100228.25;;;31.00;18.35
10008;BME280;5043;41.766;26.204;2023-03-26T12:51:54;100265.47;;;31.38;18.25
10008;BME280;5043;41.766;26.204;2023-03-26T12:57:23;100274.19;;;32.56;16.69
10008;BME280;5043;41.766;26.204;2023-03-26T13:00:15;100268.72;;;32.20;16.48
10008;BME280;5043;41.766;26.204;2023-03-26T13:05:40;100209.31;;;31.68;16.24
10008;BME280;5043;41.766;26.204;2023-03-26T13:13:59;100244.56;;;32.43;16.53
10008;BME280;5043;41.766;26.204;2023-03-26T13:31:20;100229.69;;;32.24;15.63
10008;BME280;5043;41.766;26.204;2023-03-26T13:34:06;100218.44;;;32.63;15.47
10008;BME280;5043;41.766;26.204;2023-03-26T13:47:56;100212.81;;;32.94;14.11
10008;BME280;5043;41.766;26.204;2023-03-26T13:50:32;100207.50;;;32.16;15.22
10008;BME280;5043;41.766;26.204;2023-03-26T13:53:05;100162.03;;;31.94;15.12
10008;BME280;5043;41.766;26.204;2023-03-26T13:55:54;100178.63;;;31.88;15.00
10008;BME280;5043;41.766;26.204;2023-03-26T13:58:34;100179.09;;;30.90;15.39
10008;BME280;5043;41.766;26.204;2023-03-26T14:09:16;100182.31;;;26.84;19.79
10008;BME280;5043;41.766;26.204;2023-03-26T14:11:57;100182.69;;;25.65;20.88
10008;BME280;5043;41.766;26.204;2023-03-26T14:17:18;100167.69;;;24.69;21.28
10008;BME280;5043;41.766;26.204;2023-03-26T14:23:11;100192.56;;;24.14;23.58
10008;BME280;5043;41.766;26.204;2023-03-26T14:39:33;100192.84;;;22.93;24.72
10008;BME280;5043;41.766;26.204;2023-03-26T14:42:17;100191.34;;;22.77;24.88
10008;BME280;5043;41.766;26.204;2023-03-26T14:51:09;100193.53;;;22.20;25.49
10008;BME280;5043;41.766;26.204;2023-03-26T14:54:01;100189.38;;;22.17;25.65
10008;BME280;5043;41.766;26.204;2023-03-26T15:25:08;100196.25;;;21.07;25.98
10008;BME280;5043;41.766;26.204;2023-03-26T15:41:40;100157.59;;;20.66;26.64
10008;BME280;5043;41.766;26.204;2023-03-26T15:56:12;100203.97;;;20.81;27.53
10008;BME280;5043;41.766;26.204;2023-03-26T16:04:35;100135.47;;;20.14;27.73
10008;BME280;5043;41.766;26.204;2023-03-26T16:12:52;100205.41;;;20.63;27.86
10008;BME280;5043;41.766;26.204;2023-03-26T16:15:24;100166.13;;;20.26;27.73
10008;BME280;5043;41.766;26.204;2023-03-26T16:23:01;100221.28;;;20.49;27.71
10008;BME280;5043;41.766;26.204;2023-03-26T16:25:35;100136.84;;;19.95;28.10
10008;BME280;5043;41.766;26.204;2023-03-26T16:28:28;100232.03;;;20.35;28.44
10008;BME280;5043;41.766;26.204;2023-03-26T16:34:18;100218.06;;;20.25;30.18
10008;BME280;5043;41.766;26.204;2023-03-26T16:36:46;100220.16;;;20.15;29.99
10008;BME280;5043;41.766;26.204;2023-03-26T16:39:37;100235.47;;;20.06;30.59
10008;BME280;5043;41.766;26.204;2023-03-26T16:42:36;100225.47;;;20.00;30.90
10008;BME280;5043;41.766;26.204;2023-03-26T16:52:57;100223.19;;;19.37;33.53
10008;BME280;5043;41.766;26.204;2023-03-26T17:04:03;100243.06;;;18.81;34.57
10008;BME280;5043;41.766;26.204;2023-03-26T17:12:24;100206.06;;;18.07;37.42
10008;BME280;5043;41.766;26.204;2023-03-26T17:36:58;100321.91;;;16.90;42.79
10008;BME280;5043;41.766;26.204;2023-03-26T17:42:32;100307.91;;;16.29;45.34
10008;BME280;5043;41.766;26.204;2023-03-26T17:45:08;100306.59;;;16.33;44.23
10008;BME280;5043;41.766;26.204;2023-03-26T17:47:42;100263.59;;;15.94;43.89
10008;BME280;5043;41.766;26.204;2023-03-26T17:50:16;100313.72;;;16.07;44.17
10008;BME280;5043;41.766;26.204;2023-03-26T17:53:04;100239.69;;;15.76;44.41
10008;BME280;5043;41.766;26.204;2023-03-26T17:55:33;100323.31;;;16.17;43.64
10008;BME280;5043;41.766;26.204;2023-03-26T17:58:04;100273.69;;;15.91;42.81
10008;BME280;5043;41.766;26.204;2023-03-26T18:00:33;100298.31;;;15.93;42.98
10008;BME280;5043;41.766;26.204;2023-03-26T18:03:02;100349.84;;;16.27;43.22
10008;BME280;5043;41.766;26.204;2023-03-26T18:05:32;100351.13;;;16.23;43.10
10008;BME280;5043;41.766;26.204;2023-03-26T18:08:28;100339.03;;;16.11;43.60
10008;BME280;5043;41.766;26.204;2023-03-26T18:14:03;100339.19;;;16.09;44.74
10008;BME280;5043;41.766;26.204;2023-03-26T18:16:41;100297.28;;;15.68;45.52
10008;BME280;5043;41.766;26.204;2023-03-26T18:19:15;100312.03;;;15.62;46.09
10008;BME280;5043;41.766;26.204;2023-03-26T18:21:55;100298.16;;;15.41;46.95
10008;BME280;5043;41.766;26.204;2023-03-26T18:24:46;100361.72;;;15.79;46.87
10008;BME280;5043;41.766;26.204;2023-03-26T18:27:16;100360.72;;;15.63;47.25
10008;BME280;5043;41.766;26.204;2023-03-26T18:29:45;100361.69;;;15.44;48.40
10008;BME280;5043;41.766;26.204;2023-03-26T18:34:38;100360.16;;;15.42;47.93
10008;BME280;5043;41.766;26.204;2023-03-26T18:37:22;100365.78;;;15.11;49.30
10008;BME280;5043;41.766;26.204;2023-03-26T18:42:23;100374.31;;;14.69;51.20
10008;BME280;5043;41.766;26.204;2023-03-26T18:44:49;100395.31;;;14.62;51.88
10008;BME280;5043;41.766;26.204;2023-03-26T18:47:16;100297.88;;;14.07;51.21
10008;BME280;5043;41.766;26.204;2023-03-26T18:49:46;100386.09;;;14.57;50.99
10008;BME280;5043;41.766;26.204;2023-03-26T18:52:16;100352.88;;;14.24;52.24
10008;BME280;5043;41.766;26.204;2023-03-26T18:54:43;100323.16;;;14.20;51.38
10008;BME280;5043;41.766;26.204;2023-03-26T18:57:19;100356.53;;;14.23;51.69
10008;BME280;5043;41.766;26.204;2023-03-26T18:59:47;100370.22;;;14.18;52.25
10008;BME280;5043;41.766;26.204;2023-03-26T19:02:14;100353.63;;;13.97;52.68
10008;BME280;5043;41.766;26.204;2023-03-26T19:04:42;100367.59;;;14.09;52.98
10008;BME280;5043;41.766;26.204;2023-03-26T19:07:13;100340.63;;;13.94;52.85
10008;BME280;5043;41.766;26.204;2023-03-26T19:09:41;100356.13;;;13.89;53.38
10008;BME280;5043;41.766;26.204;2023-03-26T19:12:14;100367.84;;;13.96;53.43
10008;BME280;5043;41.766;26.204;2023-03-26T19:15:17;100361.16;;;13.92;53.22
10008;BME280;5043;41.766;26.204;2023-03-26T19:17:44;100300.44;;;13.60;53.17
10008;BME280;5043;41.766;26.204;2023-03-26T19:20:18;100350.25;;;14.05;52.26
10008;BME280;5043;41.766;26.204;2023-03-26T19:22:46;100376.34;;;14.09;52.41
10008;BME280;5043;41.766;26.204;2023-03-26T19:25:21;100312.72;;;13.61;52.85
10008;BME280;5043;41.766;26.204;2023-03-26T19:27:48;100395.22;;;13.87;53.89
10008;BME280;5043;41.766;26.204;2023-03-26T19:30:34;100308.69;;;13.48;53.42
10008;BME280;5043;41.766;26.204;2023-03-26T19:33:11;100304.75;;;13.42;54.17
10008;BME280;5043;41.766;26.204;2023-03-26T19:35:38;100357.78;;;13.52;55.33
10008;BME280;5043;41.766;26.204;2023-03-26T19:38:35;100310.22;;;13.41;55.31
10008;BME280;5043;41.766;26.204;2023-03-26T19:41:02;100353.59;;;13.59;56.03
10008;BME280;5043;41.766;26.204;2023-03-26T19:43:49;100348.72;;;13.45;57.59
10008;BME280;5043;41.766;26.204;2023-03-26T19:46:15;100321.31;;;13.25;57.91
10008;BME280;5043;41.766;26.204;2023-03-26T19:48:41;100352.59;;;13.31;58.07
10008;BME280;5043;41.766;26.204;2023-03-26T19:51:17;100316.66;;;12.98;57.65
10008;BME280;5043;41.766;26.204;2023-03-26T19:53:46;100348.28;;;13.40;57.48
10008;BME280;5043;41.766;26.204;2023-03-26T19:56:14;100339.75;;;13.46;55.98
10008;BME280;5043;41.766;26.204;2023-03-26T19:58:43;100347.00;;;13.44;57.29
10008;BME280;5043;41.766;26.204;2023-03-26T20:01:18;100229.34;;;12.68;57.24
10008;BME280;5043;41.766;26.204;2023-03-26T20:03:47;100353.00;;;13.46;57.42
10008;BME280;5043;41.766;26.204;2023-03-26T20:06:19;100378.97;;;13.42;59.60
10008;BME280;5043;41.766;26.204;2023-03-26T20:08:46;100301.94;;;13.05;64.60
10008;BME280;5043;41.766;26.204;2023-03-26T20:11:18;100373.25;;;13.47;66.60
10008;BME280;5043;41.766;26.204;2023-03-26T20:13:44;100344.09;;;13.47;67.53
10008;BME280;5043;41.766;26.204;2023-03-26T20:18:39;100336.13;;;13.37;68.86
10008;BME280;5043;41.766;26.204;2023-03-26T20:21:09;100326.78;;;13.24;69.22
10008;BME280;5043;41.766;26.204;2023-03-26T20:23:35;100343.94;;;13.39;66.80
10008;BME280;5043;41.766;26.204;2023-03-26T20:26:01;100333.31;;;13.20;67.30
10008;BME280;5043;41.766;26.204;2023-03-26T20:28:27;100323.69;;;13.19;66.09
10008;BME280;5043;41.766;26.204;2023-03-26T20:30:52;100336.16;;;12.97;66.50